ENEV/EVE METAR and TAF weather

Enter ICAO airport designator
Station Type Date Time Source
ENEV METAR 2020/12/06 00:50 UTC NOAA

ENEV 060050Z AUTO VRB02KT 9999 BKN040/// M01/M02 Q1014 RMK WIND 1400FT 03010KT


Station Type Date Time Source
ENEV Decoded METAR 2020/12/06 00:50 UTC NOAA

Evenes, Norway (ENEV) 68-31N 016-41E 26M
Dec 05, 2020 - 07:50 PM EST / 2020.12.06 0050 UTC
Wind: Variable at 2 MPH (2 KT):0
Visibility: greater than 7 mile(s):0
Sky conditions: mostly cloudy
Temperature: 30 F (-1 C)
Dew Point: 28 F (-2 C)
Relative Humidity: 92%
Pressure (altimeter): 29.94 in. Hg (1014 hPa)
ob: ENEV 060050Z AUTO VRB02KT 9999 BKN040/// M01/M02 Q1014 RMK WIND 1400FT 03010KT
cycle: 1

Station Type Date Time Source
ENEV TAF 2010/02/05 07:50 UTC NOAA

METAR ENEV 050750Z 14007KT 9999 FEW040 SCT055 M04/M09 Q1019

Example: see airport list